Nearby METAR Reports


Data Updates Approximately Every Four Hours

METAR is the international standard code format for hourly surface weather observations which is analogous to the SA coding currently used in the US. The acronym roughly translates from French as Aviation Routine Weather Report. SPECI is merely the code name given to METAR formatted products which are issued on a special non-routine basis as dictated by changing meteorological conditions. The SPECI acronym roughly translates as Aviation Selected Special Weather Report.

KSLH - Cheboygan, Michigan, USA
Distance from station: W 9mi, 14km
Updated: 07/29/2021 9:15am
Overcast
Overcast
 Wind from NW
Wind: NW 9 mph , 15 km/h
Temperature: 70°F , 21°C
Dew Point: 68°F , 20°C
Humidity: 94%
Barometer: 29.81 inHg , 1009.5 hPa
Clouds: Overcast
Visibility: 10 miles , 16 km
Cloud details: Overcast 900 ft
2021/07/29 13:15 KSLH 291315Z AUTO 31008KT 10SM OVC009 21/20 A2981 RMK AO2
KMCD - Mackinac Island, Michigan, USA
Distance from station: NW 19mi, 31km
Updated: 07/29/2021 9:15am
Overcast
Overcast
 Wind from NW
Wind: NW 7 mph , 11 km/h
Temperature: 68°F , 20°C
Dew Point: 68°F , 20°C
Humidity: 100%
Barometer: 29.82 inHg , 1009.8 hPa
Clouds: Overcast
Visibility: 10 miles , 16 km
Cloud details: Overcast 700 ft
2021/07/29 13:15 KMCD 291315Z AUTO 32006KT 10SM OVC007 20/20 A2982 RMK AO2 T02030203
 
KPLN - Pellston, Michigan, USA
Distance from station: WSW 24mi, 38km
Updated: 07/29/2021 8:54am
Overcast
Overcast
 Wind from NNW
Wind: NNW 12 mph , 19 km/h
Temperature: 72°F , 22°C
Dew Point: 68°F , 20°C
Humidity: 88%
Barometer: 29.82 inHg , 1009.8 hPa
Clouds: Overcast
Visibility: 9 miles , 14 km
Cloud details: Mostly cloudy 1000 ft
Overcast 1400 ft
2021/07/29 12:54 KPLN 291254Z AUTO 33010KT 9SM BKN010 OVC014 22/20 A2982 RMK AO2 CIG 008V013 SLP094 T02220200
KPZQ - Rogers City, Michigan, USA
Distance from station: SE 31mi, 50km
Updated: 07/29/2021 9:15am
Overcast
Overcast
 Wind from NW
Wind: NW 5 mph , 7 km/h
Temperature: 70°F , 21°C
Dew Point: 68°F , 20°C
Humidity: 94%
Barometer: 29.82 inHg , 1009.8 hPa
Clouds: Overcast
Visibility: 7 miles , 11 km
Cloud details: Overcast 1600 ft
2021/07/29 13:15 KPZQ 291315Z AUTO 31004KT 7SM OVC016 21/20 A2982 RMK AO2 T02100196
 
KMGN - Harbor Springs, Michigan, USA
Distance from station: WSW 32mi, 52km
Updated: 07/29/2021 9:15am
Overcast
Overcast
 Wind from calm
Wind: Calm
Temperature: 70°F , 21°C
Dew Point: 68°F , 20°C
Humidity: 94%
Barometer: 29.83 inHg , 1010.2 hPa
Clouds: Overcast
Visibility: 10 miles , 16 km
Cloud details: Overcast 1000 ft
2021/07/29 13:15 KMGN 291315Z AUTO 00000KT 10SM OVC010 21/20 A2983 RMK AO2 T02150203
KDRM - Drummond Is, Michigan, USA
Distance from station: NE 36mi, 59km
Updated: 07/29/2021 9:15am
Overcast
Overcast
 Wind from calm
Wind: Calm
Temperature: 68°F , 20°C
Dew Point: 66°F , 19°C
Humidity: 94%
Barometer: 29.80 inHg , 1009.1 hPa
Clouds: Overcast
Visibility: 7 miles , 11 km
Cloud details: Partly cloudy 700 ft
Mostly cloudy 1600 ft
Overcast 2500 ft
2021/07/29 13:15 KDRM 291315Z AUTO 00000KT 7SM SCT007 BKN016 OVC025 20/19 A2980 RMK AO2 T02000189
 
KCIU - Chippewa Intl, Michigan, USA
Distance from station: N 41mi, 66km
Updated: 07/29/2021 8:56am
Overcast
Overcast
 Wind from NNE
Wind: NNE 6 mph , 9 km/h
Temperature: 64°F , 18°C
Dew Point: 64°F , 18°C
Humidity: 100%
Barometer: 29.82 inHg , 1009.8 hPa
Clouds: Overcast
Visibility: 7 miles , 11 km
Cloud details: Overcast 600 ft
2021/07/29 12:56 KCIU 291256Z AUTO 02005KT 7SM OVC006 18/18 A2982 RMK AO2 SLP093 T01830183
KGLR - Gaylord, Michigan, USA
Distance from station: SSW 48mi, 77km
Updated: 07/29/2021 8:53am
Haze, Mostly cloudy
Haze, Mostly cloudy
 Wind from W
Wind: W 5 mph , 7 km/h
Temperature: 72°F , 22°C
Dew Point: 66°F , 19°C
Humidity: 83%
Barometer: 29.84 inHg , 1010.5 hPa
Summary: Haze
Clouds: Mostly cloudy
Visibility: 6 miles , 10 km
Cloud details: Mostly cloudy 700 ft
2021/07/29 12:53 KGLR 291253Z AUTO 28004KT 6SM HZ BKN007 22/19 A2984 RMK AO2 CIG 004V010 SLP098 T02220189
 
KCVX - Charlevoix, Michigan, USA
Distance from station: WSW 52mi, 83km
Updated: 07/29/2021 9:15am
Mostly cloudy
Mostly cloudy
 Wind from NW
Wind: NW 6 mph , 9 km/h
Temperature: 72°F , 22°C
Dew Point: 68°F , 20°C
Humidity: 88%
Barometer: 29.84 inHg , 1010.5 hPa
Clouds: Mostly cloudy
Visibility: 7 miles , 11 km
Cloud details: Mostly cloudy 1200 ft
2021/07/29 13:15 KCVX 291315Z AUTO 32005KT 7SM BKN012 22/20 A2984 RMK AO2 T02200200
KANJ - Sault Ste Marie, Michigan, USA
Distance from station: N 56mi, 89km
Updated: 07/29/2021 9:06am
Haze, Overcast
Haze, Overcast
 Wind from varies
Wind: varies 3 mph , 6 km/h
Temperature: 68°F , 20°C
Dew Point: 63°F , 17°C
Humidity: 83%
Barometer: 29.81 inHg , 1009.5 hPa
Summary: Haze
Clouds: Overcast
Visibility: 6 miles , 10 km
Cloud details: Mostly cloudy 1400 ft
Overcast 3500 ft
2021/07/29 13:06 KANJ 291306Z AUTO VRB03KT 6SM HZ BKN014 OVC035 20/17 A2981 RMK AO2 T02000167
 
KAPN - Alpena, Michigan, USA
Distance from station: SE 56mi, 89km
Updated: 07/29/2021 8:54am
Mostly cloudy
Mostly cloudy
 Wind from varies
Wind: varies 3 mph , 6 km/h
Temperature: 72°F , 22°C
Dew Point: 68°F , 20°C
Humidity: 88%
Barometer: 29.81 inHg , 1009.5 hPa
Clouds: Mostly cloudy
Visibility: 8 miles , 13 km
Cloud details: Partly cloudy 800 ft
Mostly cloudy 2100 ft
2021/07/29 12:54 KAPN 291254Z VRB03KT 8SM SCT008 BKN021 22/20 A2981 RMK AO2 SLP090 T02170200
CYAM - Sault Ste Marie, Ontario, Canada
Distance from station: N 56mi, 90km
Updated: 07/29/2021 9:00am
Mist, Overcast
Mist, Overcast
 Wind from NW
Wind: NW 5 mph , 7 km/h
Temperature: 66°F , 19°C
Dew Point: 64°F , 18°C
Humidity: 94%
Barometer: 29.80 inHg , 1009.1 hPa
Summary: Mist
Clouds: Overcast
Visibility: 5 miles , 8 km
Cloud details: Partly cloudy 2800 ft
Mostly cloudy 3200 ft
Overcast 3500 ft
2021/07/29 13:00 CYAM 291300Z 32004KT 5SM BR SCT028 BKN032 OVC035 19/18 A2980 RMK CU3SC4SC1 SLP093 DENSITY ALT 1500FT
 
KSJX - Beaver Island, Michigan, USA
Distance from station: W 60mi, 96km
Updated: 07/29/2021 9:15am
Overcast
Overcast
 Wind from NNW
Wind: NNW 7 mph , 11 km/h
Temperature: 70°F , 21°C
Dew Point: 66°F , 19°C
Humidity: 88%
Barometer: 29.84 inHg , 1010.5 hPa
Clouds: Overcast
Visibility: 10 miles , 16 km
Cloud details: Overcast 800 ft
2021/07/29 13:15 KSJX 291315Z AUTO 33006KT 10SM OVC008 21/19 A2984 RMK AO2 T02100193
KACB - Bellaire, Michigan, USA
Distance from station: SW 63mi, 102km
Updated: 07/29/2021 9:15am
Overcast
Overcast
 Wind from calm
Wind: Calm
Temperature: 72°F , 22°C
Dew Point: 70°F , 21°C
Humidity: 94%
Barometer: 29.84 inHg , 1010.5 hPa
Clouds: Overcast
Visibility: 7 miles , 11 km
Cloud details: Overcast 400 ft
2021/07/29 13:15 KACB 291315Z AUTO 00000KT 7SM OVC004 22/21 A2984 RMK AO2 T02200210
 
CWNL - Great Duck Island, Ontario, Canada
Distance from station: E 66mi, 106km
Updated: 05/12/2021 9:00am
NOT Current

 Wind from NW
Wind: NW 7 mph , 11 km/h
Temperature: 41°F , 5°C
Wind Chill: 36°F , 2°C
Dew Point: 36°F , 2°C
Humidity: 81%
2021/05/12 13:00 CWNL 121300Z AUTO 32006KT 05/02 RMK AO1 SLP295 T00530023 51017
KERY - Newberry, Michigan, USA
Distance from station: NW 69mi, 112km
Updated: 07/29/2021 9:15am
Mist, Overcast
Mist, Overcast
 Wind from NW
Wind: NW 8 mph , 13 km/h
Temperature: 66°F , 19°C
Dew Point: 64°F , 18°C
Humidity: 94%
Barometer: 29.84 inHg , 1010.5 hPa
Summary: Mist
Clouds: Overcast
Visibility: 5 miles , 8 km
Cloud details: Overcast 500 ft
2021/07/29 13:15 KERY 291315Z AUTO 32007KT 5SM BR OVC005 19/18 A2984 RMK AO2 T01850181
 
KGOV - Grayling Af, Michigan, USA
Distance from station: SSW 70mi, 113km
Updated: 07/29/2021 8:58am
Mostly cloudy
Mostly cloudy
 Wind from WNW
Wind: WNW 5 mph , 7 km/h
Temperature: 70°F , 21°C
Dew Point: 68°F , 20°C
Humidity: 94%
Barometer: 29.84 inHg , 1010.5 hPa
Clouds: Mostly cloudy
Visibility: 10 miles , 16 km
Cloud details: Partly cloudy 1300 ft
Partly cloudy 2500 ft
Mostly cloudy 3300 ft
2021/07/29 12:58 KGOV 291258Z AUTO 29004KT 10SM SCT013 SCT025 BKN033 21/20 A2984 RMK AO2 LTG DSNT N RAB31E51 SLP105 P0000 T02070202 $